createdAt,value
2023-01-20T06:02:05.169Z,99729.63
2023-01-20T06:04:36.357Z,99738.34
2023-01-20T06:07:03.372Z,99745.38
2023-01-20T06:09:33.602Z,99747.13
2023-01-20T06:12:01.455Z,99741.03
2023-01-20T06:14:28.985Z,99743.63
2023-01-20T06:16:56.080Z,99748.88
2023-01-20T06:19:23.841Z,99750.63
2023-01-20T06:21:51.419Z,99747.16
2023-01-20T06:24:21.566Z,99759.38
2023-01-20T06:26:51.050Z,99755.91
2023-01-20T06:29:24.061Z,99762.00
2023-01-20T06:31:50.883Z,99761.97
2023-01-20T06:37:07.256Z,99759.38
2023-01-20T06:39:40.966Z,99760.28
2023-01-20T06:42:31.992Z,99766.41
2023-01-20T06:44:59.894Z,99771.66
2023-01-20T06:47:32.787Z,99763.78
2023-01-20T06:50:00.196Z,99768.13
2023-01-20T06:52:30.359Z,99777.69
2023-01-20T06:55:00.689Z,99775.06
2023-01-20T06:57:30.053Z,99781.19
2023-01-20T06:59:57.583Z,99782.91
2023-01-20T07:02:24.679Z,99783.81
2023-01-20T07:05:00.370Z,99794.25
2023-01-20T07:07:39.949Z,99789.00
2023-01-20T07:10:32.156Z,99800.34
2023-01-20T07:13:01.579Z,99800.34
2023-01-20T07:15:28.351Z,99802.97
2023-01-20T07:17:55.195Z,99813.47
2023-01-20T07:20:23.073Z,99816.09
2023-01-20T07:22:50.515Z,99816.97
2023-01-20T07:25:18.029Z,99820.50
2023-01-20T07:27:46.696Z,99825.72
2023-01-20T07:30:16.931Z,99823.97
2023-01-20T07:32:43.481Z,99830.94
2023-01-20T07:35:10.993Z,99835.31
2023-01-20T07:37:37.626Z,99837.03
2023-01-20T07:40:05.248Z,99837.94
2023-01-20T07:42:31.821Z,99840.56
2023-01-20T07:44:59.012Z,99847.53
2023-01-20T07:47:25.562Z,99854.53
2023-01-20T07:49:52.770Z,99851.03
2023-01-20T07:52:19.342Z,99860.66
2023-01-20T07:54:46.509Z,99863.28
2023-01-20T07:57:13.039Z,99869.41
2023-01-20T07:59:40.255Z,99866.75
2023-01-20T08:02:09.355Z,99877.22
2023-01-20T08:04:36.599Z,99881.59
2023-01-20T08:07:03.704Z,99883.34
2023-01-20T08:09:30.911Z,99887.75
2023-01-20T08:11:57.609Z,99887.72
2023-01-20T08:14:24.900Z,99892.09
2023-01-20T08:16:51.472Z,99892.06
2023-01-20T08:19:18.757Z,99895.53
2023-01-20T08:21:45.354Z,99905.16
2023-01-20T08:24:12.535Z,99907.75
2023-01-20T08:26:39.109Z,99904.25
2023-01-20T08:29:09.177Z,99911.25
2023-01-20T08:31:36.499Z,99907.72
2023-01-20T08:34:04.293Z,99923.50
2023-01-20T08:36:34.409Z,99920.88
2023-01-20T08:39:05.034Z,99921.75
2023-01-20T08:41:35.088Z,99924.38
2023-01-20T08:44:02.714Z,99927.00
2023-01-20T08:46:30.333Z,99934.00
2023-01-20T08:48:57.517Z,99937.47
2023-01-20T08:51:27.820Z,99935.72
2023-01-20T08:53:54.433Z,99938.34
2023-01-20T08:56:21.918Z,99937.47
2023-01-20T08:58:48.990Z,99942.72
2023-01-20T09:01:22.215Z,99946.19
2023-01-20T09:04:04.382Z,99947.91
2023-01-20T09:06:48.884Z,99949.69
2023-01-20T09:09:17.544Z,99944.44
2023-01-20T09:11:51.056Z,99948.81
2023-01-20T09:14:23.423Z,99945.28
2023-01-20T09:16:50.633Z,99949.66
2023-01-20T09:19:18.028Z,99954.00
2023-01-20T09:21:44.651Z,99956.59
2023-01-20T09:24:11.710Z,99958.34
2023-01-20T09:26:41.866Z,99960.09
2023-01-20T09:29:13.257Z,99960.09
2023-01-20T09:31:46.011Z,99957.47
2023-01-20T09:34:21.636Z,99958.38
2023-01-20T09:37:19.349Z,99963.59
2023-01-20T09:40:05.694Z,99968.81
2023-01-20T09:43:17.308Z,99968.81
2023-01-20T09:45:59.255Z,99967.03
2023-01-20T09:49:01.361Z,99965.28
2023-01-20T09:52:29.772Z,99968.81
2023-01-20T09:55:10.578Z,99966.19
2023-01-20T09:57:43.154Z,99966.16
2023-01-20T10:00:22.030Z,99957.44
2023-01-20T10:02:54.961Z,99968.78
2023-01-20T10:05:30.737Z,99967.06
2023-01-20T10:08:04.515Z,99973.16
2023-01-20T10:10:52.547Z,99974.06
2023-01-20T10:13:31.441Z,99975.84
2023-01-20T10:16:03.825Z,99979.31
2023-01-20T10:18:42.276Z,99980.16
2023-01-20T10:21:16.521Z,99980.13
2023-01-20T10:24:11.585Z,99980.97
2023-01-20T10:26:54.318Z,99981.84
2023-01-20T10:29:34.863Z,99976.56
2023-01-20T10:32:09.689Z,99986.19
2023-01-20T10:34:49.604Z,99984.47
2023-01-20T10:37:16.845Z,99978.31
2023-01-20T10:40:09.649Z,99980.94
2023-01-20T10:42:36.235Z,99982.69
2023-01-20T10:45:03.877Z,99983.56
2023-01-20T10:47:43.999Z,99986.16
2023-01-20T10:50:11.399Z,99989.59
2023-01-20T10:52:56.815Z,99993.06
2023-01-20T10:55:35.421Z,99993.91
2023-01-20T10:58:14.887Z,100000.94
2023-01-20T11:00:42.920Z,99993.06
2023-01-20T11:03:15.831Z,99995.66
2023-01-20T11:05:43.433Z,99998.25
2023-01-20T11:08:35.281Z,99999.97
2023-01-20T11:11:12.755Z,99992.97
2023-01-20T11:13:39.495Z,100000.88
2023-01-20T11:16:25.680Z,100000.84
2023-01-20T11:19:00.080Z,100004.28
2023-01-20T11:21:31.215Z,100006.94
2023-01-20T11:23:59.483Z,100007.84
2023-01-20T11:26:35.792Z,100006.94
2023-01-20T11:29:11.340Z,100003.41
2023-01-20T11:32:02.863Z,100012.16
2023-01-20T11:34:32.569Z,100021.81
2023-01-20T11:37:05.513Z,100020.94
2023-01-20T11:39:42.332Z,100018.25
2023-01-20T11:42:16.267Z,100019.97
2023-01-20T11:44:46.583Z,100025.28
2023-01-20T11:47:27.520Z,100025.31
2023-01-20T11:50:22.934Z,100027.97
2023-01-20T11:52:50.237Z,100034.97
2023-01-20T11:55:27.253Z,100029.75
2023-01-20T11:57:58.791Z,100028.00
2023-01-20T12:00:32.463Z,100035.03
2023-01-20T12:03:11.664Z,100036.75
2023-01-20T12:05:44.926Z,100038.50
2023-01-20T12:08:18.501Z,100048.13
2023-01-20T12:10:46.491Z,100040.25
2023-01-20T12:13:23.374Z,100049.84
2023-01-20T12:15:56.137Z,100054.22
2023-01-20T12:18:37.784Z,100044.63
2023-01-20T12:21:20.639Z,100051.63
2023-01-20T12:24:30.135Z,100048.97
2023-01-20T12:27:02.706Z,100058.56
2023-01-20T12:29:44.673Z,100052.41
2023-01-20T12:32:11.861Z,100055.94
2023-01-20T12:34:38.724Z,100062.13
2023-01-20T12:37:08.655Z,100060.41
2023-01-20T12:39:57.551Z,100058.63
2023-01-20T12:42:39.361Z,100068.28
2023-01-20T12:45:21.192Z,100066.50
2023-01-20T12:48:10.356Z,100077.03
2023-01-20T12:50:57.845Z,100081.34
2023-01-20T12:53:46.221Z,100080.50
2023-01-20T12:56:19.433Z,100087.47
2023-01-20T12:59:24.650Z,100082.22
2023-01-20T13:02:26.506Z,100078.72
2023-01-20T13:04:53.023Z,100089.25
2023-01-20T13:07:35.370Z,100091.06
2023-01-20T13:10:07.913Z,100091.94
2023-01-20T13:12:51.150Z,100098.94
2023-01-20T13:15:28.938Z,100096.38
2023-01-20T13:18:17.656Z,100104.25
2023-01-20T13:20:45.982Z,100110.34
2023-01-20T13:23:22.679Z,100106.81
2023-01-20T13:25:51.545Z,100110.34
2023-01-20T13:28:25.134Z,100104.25
2023-01-20T13:30:54.680Z,100112.09
2023-01-20T13:33:40.158Z,100117.34
2023-01-20T13:36:21.412Z,100112.97
2023-01-20T13:38:51.228Z,100119.97
2023-01-20T13:41:48.724Z,100125.22
2023-01-20T13:44:36.071Z,100124.31
2023-01-20T13:47:04.296Z,100127.78
2023-01-20T13:49:54.927Z,100133.03
2023-01-20T13:52:52.964Z,100129.53
2023-01-20T13:55:41.092Z,100140.03
2023-01-20T13:58:26.572Z,100148.78
2023-01-20T14:00:58.003Z,100154.00
2023-01-20T14:03:33.779Z,100148.75
2023-01-20T14:06:14.037Z,100147.03
2023-01-20T14:08:50.014Z,100153.16
2023-01-20T14:11:25.790Z,100163.66
2023-01-20T14:13:58.543Z,100161.91
2023-01-20T14:16:34.527Z,100162.78
2023-01-20T14:19:15.639Z,100166.31
2023-01-20T14:21:42.919Z,100167.16
2023-01-20T14:24:29.601Z,100171.53
2023-01-20T14:27:31.843Z,100174.16
2023-01-20T14:30:25.360Z,100171.50
2023-01-20T14:32:53.570Z,100182.03
2023-01-20T14:35:33.129Z,100178.53
2023-01-20T14:38:01.115Z,100178.53
2023-01-20T14:40:33.593Z,100185.53
2023-01-20T14:43:22.059Z,100193.41
2023-01-20T14:45:53.660Z,100193.41
2023-01-20T14:48:33.753Z,100199.56
2023-01-20T14:51:03.999Z,100203.06
2023-01-20T14:53:30.888Z,100206.53
2023-01-20T14:56:05.005Z,100210.06
2023-01-20T14:58:32.270Z,100211.81
2023-01-20T15:01:02.779Z,100215.31
2023-01-20T15:03:31.109Z,100213.56
2023-01-20T15:06:05.102Z,100225.84
2023-01-20T15:08:35.044Z,100220.59
2023-01-20T15:11:16.980Z,100225.84
2023-01-20T15:14:10.392Z,100230.19
2023-01-20T15:16:37.004Z,100232.81
2023-01-20T15:19:20.454Z,100236.34
2023-01-20T15:21:56.302Z,100236.31
2023-01-20T15:24:30.508Z,100238.97
2023-01-20T15:26:59.183Z,100243.38
2023-01-20T15:29:28.303Z,100252.97
2023-01-20T15:31:57.313Z,100256.47
2023-01-20T15:34:25.972Z,100260.00
2023-01-20T15:36:54.379Z,100262.63
2023-01-20T15:39:29.649Z,100262.59
2023-01-20T15:41:57.233Z,100276.63
2023-01-20T15:44:26.302Z,100273.09
2023-01-20T15:46:56.833Z,100278.38
2023-01-20T15:49:25.760Z,100279.25
2023-01-20T15:51:52.455Z,100279.25
2023-01-20T15:54:19.675Z,100288.00
2023-01-20T15:56:46.249Z,100288.84
2023-01-20T15:59:15.359Z,100295.84
2023-01-20T16:01:42.508Z,100301.97
2023-01-20T16:04:10.389Z,100300.22
2023-01-20T16:06:37.489Z,100309.88
2023-01-20T16:09:19.714Z,100309.84
2023-01-20T16:11:47.481Z,100311.56
2023-01-20T16:14:14.699Z,100309.84
2023-01-20T16:16:41.290Z,100321.19
2023-01-20T16:19:14.509Z,100329.03
2023-01-20T16:21:43.686Z,100334.28
2023-01-20T16:24:12.736Z,100339.50
2023-01-20T16:26:39.944Z,100346.50
2023-01-20T16:29:09.539Z,100356.94
2023-01-20T16:31:36.360Z,100351.69
2023-01-20T16:34:04.550Z,100358.69
2023-01-20T16:36:31.155Z,100363.94
2023-01-20T16:38:58.500Z,100368.28
2023-01-20T16:41:30.807Z,100372.66
2023-01-20T16:43:58.845Z,100382.22
2023-01-20T16:46:31.482Z,100385.72
2023-01-20T16:49:01.817Z,100394.41
2023-01-20T16:51:29.902Z,100392.63
2023-01-20T16:53:57.855Z,100400.50
2023-01-20T16:56:27.754Z,100400.50
2023-01-20T16:58:59.540Z,100412.72
2023-01-20T17:01:26.551Z,100417.06
2023-01-20T17:03:56.365Z,100420.53
2023-01-20T17:06:29.038Z,100425.72
2023-01-20T17:08:58.548Z,100421.34
2023-01-20T17:11:30.161Z,100419.59
2023-01-20T17:13:57.743Z,100427.44
2023-01-20T17:16:28.262Z,100424.78
2023-01-20T17:18:58.676Z,100438.75
2023-01-20T17:21:28.217Z,100444.81
2023-01-20T17:24:03.209Z,100451.78
2023-01-20T17:26:30.818Z,100445.63
2023-01-20T17:29:04.757Z,100448.22
2023-01-20T17:31:34.281Z,100448.19
2023-01-20T17:34:01.593Z,100459.50
2023-01-20T17:36:29.562Z,100459.44
2023-01-20T17:38:57.993Z,100452.41
2023-01-20T17:41:24.535Z,100459.34
2023-01-20T17:43:51.736Z,100465.47
2023-01-20T17:46:23.384Z,100472.44
2023-01-20T17:48:51.460Z,100476.78
2023-01-20T17:51:20.587Z,100475.03
2023-01-20T17:53:48.749Z,100481.09
2023-01-20T17:56:16.832Z,100481.91
2023-01-20T17:58:45.070Z,100492.34
2023-01-20T18:01:17.685Z,100494.06
2023-01-20T18:03:46.188Z,100504.53
2023-01-20T18:06:15.043Z,100504.53
2023-01-20T18:08:43.127Z,100513.22
2023-01-20T18:11:19.516Z,100522.81
2023-01-20T18:13:47.780Z,100519.31
2023-01-20T18:16:16.050Z,100516.66
2023-01-20T18:18:44.928Z,100530.59
2023-01-20T18:21:17.119Z,100532.31
2023-01-20T18:23:45.795Z,100530.56
2023-01-20T18:26:14.218Z,100534.00
2023-01-20T18:28:42.196Z,100538.34
2023-01-20T18:31:13.668Z,100539.19
2023-01-20T18:33:47.743Z,100536.53
2023-01-20T18:36:18.398Z,100546.97
2023-01-20T18:38:50.357Z,100544.31
2023-01-20T18:41:17.208Z,100559.97
2023-01-20T18:43:44.651Z,100559.94
2023-01-20T18:46:11.546Z,100561.63
2023-01-20T18:48:45.468Z,100566.75
2023-01-20T18:51:15.110Z,100566.66
2023-01-20T18:53:45.835Z,100564.84
2023-01-20T18:56:14.893Z,100580.47
2023-01-20T18:58:47.317Z,100576.91
2023-01-20T19:01:17.140Z,100582.06
2023-01-20T19:03:46.351Z,100588.94
2023-01-20T19:06:15.306Z,100588.91
2023-01-20T19:08:44.126Z,100593.22
2023-01-20T19:11:13.668Z,100592.34
2023-01-20T19:13:42.204Z,100595.84
2023-01-20T19:16:10.483Z,100597.53
2023-01-20T19:18:37.934Z,100602.72
2023-01-20T19:21:10.325Z,100604.41
2023-01-20T19:23:38.056Z,100612.31
2023-01-20T19:26:10.709Z,100618.34
2023-01-20T19:28:38.558Z,100616.56
2023-01-20T19:31:09.513Z,100621.81
2023-01-20T19:33:37.554Z,100621.75
2023-01-20T19:36:07.568Z,100619.97
2023-01-20T19:38:35.652Z,100627.81
2023-01-20T19:41:14.552Z,100632.16
2023-01-20T19:43:42.327Z,100629.50
2023-01-20T19:46:18.668Z,100635.56
2023-01-20T19:48:45.985Z,100637.31
2023-01-20T19:51:14.808Z,100649.50
2023-01-20T19:53:43.145Z,100644.28
2023-01-20T19:56:17.559Z,100643.34
2023-01-20T19:58:47.719Z,100648.56
2023-01-20T20:01:26.174Z,100658.06
2023-01-20T20:03:54.655Z,100650.28
2023-01-20T20:06:23.227Z,100661.56
2023-01-20T20:08:50.629Z,100663.28
2023-01-20T20:11:17.522Z,100670.34
2023-01-20T20:13:44.894Z,100684.19
2023-01-20T20:16:11.605Z,100670.22
2023-01-20T20:18:38.815Z,100678.09
2023-01-20T20:21:06.660Z,100680.75
2023-01-20T20:23:33.843Z,100687.72
2023-01-20T20:26:00.448Z,100681.66
2023-01-20T20:28:28.487Z,100682.53
2023-01-20T20:30:58.473Z,100692.97
2023-01-20T20:33:25.732Z,100688.63
2023-01-20T20:35:52.352Z,100697.34
2023-01-20T20:38:19.544Z,100701.66
2023-01-20T20:40:46.261Z,100701.66
2023-01-20T20:43:13.516Z,100705.09
2023-01-20T20:45:40.119Z,100712.09
2023-01-20T20:48:07.376Z,100708.63
2023-01-20T20:50:34.012Z,100710.38
2023-01-20T20:53:01.359Z,100712.97
2023-01-20T20:55:29.291Z,100717.38
2023-01-20T20:57:56.820Z,100721.72
2023-01-20T21:00:28.016Z,100725.13
2023-01-20T21:02:55.333Z,100724.25
2023-01-20T21:05:22.251Z,100735.56
2023-01-20T21:07:49.365Z,100735.56
2023-01-20T21:10:17.504Z,100743.44
2023-01-20T21:12:45.049Z,100740.78
2023-01-20T21:15:11.857Z,100742.47
2023-01-20T21:17:39.525Z,100744.25
2023-01-20T21:20:07.604Z,100752.97
2023-01-20T21:22:34.880Z,100756.41
2023-01-20T21:25:01.434Z,100767.78
2023-01-20T21:27:30.745Z,100764.34
2023-01-20T21:29:57.353Z,100771.25
